Time;durP1;ratioP1;P1;durP2;ratioP2;P2;SDS_P1;SDS_P2;PMS_P1;PMS_P2;Temp;Humidity;BMP_temperature;BMP_pressure;BME280_temperature;BME280_humidity;BME280_pressure;Samples;Min_cycle;Max_cycle;Signal;HPM_P1;HPM_P2
2022/01/14 00:01:59;;;;;;;12.50;9.55;;;16.30;39.30;;;;;;5077917;28;20678;-70
2022/01/14 00:04:26;;;;;;;13.27;9.80;;;16.20;39.30;;;;;;5077763;28;20198;-71
2022/01/14 00:06:53;;;;;;;12.35;9.80;;;16.20;39.20;;;;;;5106285;28;20230;-69
2022/01/14 00:09:20;;;;;;;14.27;9.50;;;16.20;39.20;;;;;;5085717;28;20413;-70
2022/01/14 00:11:51;;;;;;;12.25;9.10;;;16.10;39.30;;;;;;5078712;28;20190;-72
2022/01/14 00:14:35;;;;;;;11.48;9.07;;;16.10;39.30;;;;;;5096488;28;20189;-70
2022/01/14 00:17:03;;;;;;;11.68;9.93;;;16.10;39.50;;;;;;5078775;28;20202;-69
2022/01/14 00:19:30;;;;;;;12.48;9.70;;;16.10;39.50;;;;;;5078330;28;20217;-72
2022/01/14 00:21:59;;;;;;;13.48;9.95;;;16.00;39.50;;;;;;5078466;28;20627;-71
2022/01/14 00:24:32;;;;;;;11.90;8.77;;;16.00;39.40;;;;;;5078570;28;20198;-69
2022/01/14 00:32:39;;;;;;;13.35;9.77;;;15.90;39.40;;;;;;5078196;28;20646;-69
2022/01/14 00:35:07;;;;;;;11.63;9.40;;;15.90;39.60;;;;;;5078557;28;20224;-71
2022/01/14 00:37:34;;;;;;;10.13;9.05;;;15.90;39.70;;;;;;5078715;28;20225;-70
2022/01/14 00:40:02;;;;;;;11.40;9.48;;;15.90;39.60;;;;;;5081019;28;20209;-70
2022/01/14 00:42:30;;;;;;;10.80;9.32;;;15.80;39.60;;;;;;5077512;28;20261;-71
2022/01/14 00:44:57;;;;;;;12.88;9.70;;;15.90;39.70;;;;;;5078055;28;20563;-72
2022/01/14 00:47:24;;;;;;;10.40;9.00;;;15.80;39.50;;;;;;5078611;28;20198;-70
2022/01/14 00:49:51;;;;;;;10.20;8.77;;;15.80;40.20;;;;;;5081337;28;20204;-71
2022/01/14 00:52:18;;;;;;;10.73;9.25;;;15.80;39.70;;;;;;5084252;28;20226;-70
2022/01/14 00:54:46;;;;;;;13.23;9.27;;;15.70;39.60;;;;;;5079221;28;20229;-69
2022/01/14 00:57:28;;;;;;;12.05;9.32;;;15.70;39.60;;;;;;5077977;28;20697;-69
2022/01/14 00:59:56;;;;;;;10.13;9.13;;;15.70;39.60;;;;;;5077331;28;20208;-69
2022/01/14 01:02:22;;;;;;;10.82;9.30;;;15.70;39.60;;;;;;5076926;28;20304;-71
2022/01/14 01:04:50;;;;;;;12.00;9.75;;;15.70;39.70;;;;;;5077218;28;20292;-70
2022/01/14 01:07:17;;;;;;;11.73;9.45;;;15.70;39.60;;;;;;5077689;28;20194;-70
2022/01/14 01:09:49;;;;;;;10.10;9.10;;;15.70;40.30;;;;;;5076902;28;20647;-71
2022/01/14 01:12:29;;;;;;;10.30;9.20;;;15.60;39.60;;;;;;5077255;28;20186;-69
2022/01/14 01:15:05;;;;;;;10.48;8.80;;;15.60;39.70;;;;;;5076907;28;20280;-71
2022/01/14 01:17:32;;;;;;;10.75;8.63;;;15.60;39.70;;;;;;5076845;28;20194;-69
2022/01/14 01:20:00;;;;;;;10.27;8.80;;;15.60;39.70;;;;;;5076505;28;20206;-69
2022/01/14 01:22:27;;;;;;;11.07;8.63;;;15.50;39.60;;;;;;5076592;28;20586;-71
2022/01/14 01:25:09;;;;;;;10.32;8.85;;;15.60;39.80;;;;;;5076556;28;20198;-71
2022/01/14 01:27:40;;;;;;;10.60;9.18;;;15.50;39.70;;;;;;5076675;28;20237;-71
2022/01/14 01:30:15;;;;;;;10.02;8.77;;;15.50;39.80;;;;;;5076554;28;20186;-71
2022/01/14 01:32:47;;;;;;;11.93;9.13;;;15.50;39.70;;;;;;5076883;28;20181;-71
2022/01/14 01:35:14;;;;;;;11.25;8.75;;;15.50;39.80;;;;;;5076456;28;20266;-69
2022/01/14 01:37:41;;;;;;;11.20;9.15;;;15.40;39.80;;;;;;5076219;28;20222;-70
2022/01/14 01:40:10;;;;;;;10.63;9.32;;;15.40;40.40;;;;;;5076403;28;20194;-70
2022/01/14 01:42:37;;;;;;;10.52;9.32;;;15.40;39.80;;;;;;5077362;28;20218;-67
2022/01/14 01:45:09;;;;;;;11.90;9.05;;;15.40;39.80;;;;;;5076378;28;20194;-69
2022/01/14 01:47:37;;;;;;;9.98;9.00;;;15.40;39.90;;;;;;5076141;28;20319;-67
2022/01/14 01:50:10;;;;;;;10.77;9.35;;;15.40;39.80;;;;;;5075970;28;20197;-69
2022/01/14 01:52:37;;;;;;;9.90;8.70;;;15.40;39.90;;;;;;5094207;28;20298;-67
2022/01/14 01:55:05;;;;;;;12.00;9.30;;;15.40;40.00;;;;;;5075291;28;20289;-69
2022/01/14 01:57:31;;;;;;;10.50;9.25;;;15.30;39.90;;;;;;5075446;28;20582;-69
2022/01/14 01:59:58;;;;;;;11.00;9.75;;;15.30;39.80;;;;;;5093665;28;20186;-67
2022/01/14 02:02:25;;;;;;;9.55;8.60;;;15.30;39.80;;;;;;5093822;28;20209;-69
2022/01/14 02:04:54;;;;;;;10.70;9.60;;;15.30;39.90;;;;;;5075680;28;20200;-67
2022/01/14 02:07:21;;;;;;;10.27;9.27;;;15.30;39.90;;;;;;5075581;28;20672;-67
2022/01/14 02:09:48;;;;;;;9.55;8.55;;;15.30;40.00;;;;;;5093723;28;20190;-66
2022/01/14 02:12:15;;;;;;;11.43;9.15;;;15.20;40.00;;;;;;5075574;28;20221;-70
2022/01/14 02:14:55;;;;;;;10.50;9.40;;;15.20;40.00;;;;;;5093784;28;20190;-68
2022/01/14 02:17:36;;;;;;;10.52;9.20;;;15.20;39.90;;;;;;5075332;28;20307;-67
2022/01/14 02:22:53;;;;;;;10.30;9.20;;;15.20;40.00;;;;;;5075520;28;20209;-69
2022/01/14 02:25:28;;;;;;;10.90;9.43;;;15.20;40.10;;;;;;5075125;28;20198;-67
2022/01/14 02:27:56;;;;;;;11.38;9.68;;;15.20;40.00;;;;;;5075381;28;20304;-68
2022/01/14 02:30:24;;;;;;;9.63;8.70;;;15.10;40.10;;;;;;5075279;28;20197;-69
2022/01/14 02:32:51;;;;;;;10.15;9.15;;;15.10;40.10;;;;;;5075478;28;20212;-69
2022/01/14 02:35:19;;;;;;;11.25;9.30;;;15.10;40.00;;;;;;5075348;28;20566;-67
2022/01/14 02:37:46;;;;;;;10.18;9.05;;;15.10;40.00;;;;;;5074943;28;20218;-69
2022/01/14 02:40:14;;;;;;;10.80;9.65;;;15.10;40.00;;;;;;5075343;28;20251;-69
2022/01/14 02:42:41;;;;;;;10.38;9.27;;;15.10;40.10;;;;;;5074901;28;20585;-69
2022/01/14 02:45:11;;;;;;;11.43;9.82;;;15.10;40.00;;;;;;5074962;28;20194;-67
2022/01/14 02:47:38;;;;;;;10.68;9.48;;;15.10;40.10;;;;;;5074671;28;20252;-70
2022/01/14 02:50:07;;;;;;;10.07;9.07;;;15.10;40.20;;;;;;5075096;28;20225;-68
2022/01/14 02:52:53;;;;;;;10.15;9.15;;;15.10;40.10;;;;;;5075015;28;20239;-68
2022/01/14 02:55:21;;;;;;;10.73;9.63;;;15.00;40.10;;;;;;5075036;28;20200;-69
2022/01/14 02:57:49;;;;;;;10.73;9.63;;;15.00;40.10;;;;;;5079128;28;20214;-70
2022/01/14 03:00:17;;;;;;;10.80;9.80;;;15.00;40.10;;;;;;5078376;28;20206;-67
2022/01/14 03:02:46;;;;;;;11.02;9.43;;;15.00;40.10;;;;;;5079574;28;20273;-66
2022/01/14 03:05:13;;;;;;;10.38;9.30;;;15.00;40.10;;;;;;5094304;28;20196;-67
2022/01/14 03:07:42;;;;;;;9.70;8.75;;;15.00;40.20;;;;;;5078760;28;20218;-70
2022/01/14 03:10:10;;;;;;;10.25;9.25;;;14.90;40.10;;;;;;5097144;28;20188;-70
2022/01/14 03:12:37;;;;;;;9.63;8.63;;;14.90;40.10;;;;;;5078644;28;20194;-68
2022/01/14 03:15:05;;;;;;;10.85;9.75;;;14.90;40.10;;;;;;5078572;28;20248;-66
2022/01/14 03:17:32;;;;;;;10.32;9.32;;;14.90;40.10;;;;;;5096271;28;20186;-70
2022/01/14 03:20:01;;;;;;;10.60;9.18;;;14.90;40.10;;;;;;5078320;28;20210;-70
2022/01/14 03:22:32;;;;;;;9.80;8.88;;;14.90;40.10;;;;;;5077936;28;20260;-68
2022/01/14 03:27:45;;;;;;;9.55;8.65;;;14.90;40.10;;;;;;5096508;28;20327;-68
2022/01/14 03:30:13;;;;;;;10.15;9.13;;;14.80;40.10;;;;;;5077734;28;20658;-67
2022/01/14 03:32:40;;;;;;;9.80;8.90;;;14.80;40.20;;;;;;5078001;28;20194;-66
2022/01/14 03:35:09;;;;;;;10.20;9.20;;;14.80;40.30;;;;;;5077766;28;20198;-69
2022/01/14 03:37:36;;;;;;;10.18;9.18;;;14.80;40.30;;;;;;5078048;28;20639;-69
2022/01/14 03:40:05;;;;;;;9.90;8.90;;;14.80;40.30;;;;;;5095857;28;20201;-67
2022/01/14 03:42:33;;;;;;;10.55;9.45;;;14.80;40.30;;;;;;5077685;28;20309;-68
2022/01/14 03:45:01;;;;;;;10.13;9.13;;;14.80;40.30;;;;;;5077439;28;20199;-67
2022/01/14 03:47:28;;;;;;;10.00;9.02;;;14.70;40.20;;;;;;5077669;28;20616;-69
2022/01/14 03:49:55;;;;;;;9.73;8.73;;;14.80;40.30;;;;;;5095877;28;20224;-68
2022/01/14 03:52:22;;;;;;;10.20;9.20;;;14.70;40.20;;;;;;5077414;28;20572;-69
2022/01/14 03:54:49;;;;;;;11.05;9.95;;;14.70;40.20;;;;;;5095702;28;20186;-69
2022/01/14 03:57:17;;;;;;;10.73;9.63;;;14.70;40.30;;;;;;5095721;28;20204;-70
2022/01/14 03:59:45;;;;;;;10.18;9.18;;;14.70;40.30;;;;;;5078008;28;20209;-68
2022/01/14 04:02:12;;;;;;;10.40;9.30;;;14.70;40.30;;;;;;5077221;28;20243;-68
2022/01/14 04:04:39;;;;;;;10.55;9.55;;;14.70;40.40;;;;;;5077474;28;20200;-69
2022/01/14 04:07:06;;;;;;;10.88;9.65;;;14.70;40.30;;;;;;5077347;28;20544;-68
2022/01/14 04:09:36;;;;;;;10.00;9.00;;;14.70;40.40;;;;;;5095299;28;20202;-67
2022/01/14 04:12:06;;;;;;;9.98;8.90;;;14.70;40.30;;;;;;5095383;28;20186;-67
2022/01/14 04:17:20;;;;;;;10.38;9.25;;;14.60;40.20;;;;;;5075840;28;20190;-69
2022/01/14 04:19:47;;;;;;;10.20;9.20;;;14.60;40.30;;;;;;5077184;28;20200;-67
2022/01/14 04:22:14;;;;;;;10.15;8.88;;;14.60;40.50;;;;;;5076802;28;20222;-69
2022/01/14 04:24:41;;;;;;;9.90;8.98;;;14.60;40.50;;;;;;5077113;28;20199;-69
2022/01/14 04:27:08;;;;;;;10.25;9.23;;;14.60;40.50;;;;;;5077344;28;20202;-69
2022/01/14 04:29:37;;;;;;;10.93;9.82;;;14.60;40.20;;;;;;5076524;28;20281;-66
2022/01/14 04:32:04;;;;;;;9.57;8.68;;;14.60;40.30;;;;;;5077009;28;20201;-68
2022/01/14 04:34:32;;;;;;;10.20;9.20;;;14.60;40.30;;;;;;5076712;28;20194;-70
2022/01/14 04:36:59;;;;;;;10.68;9.57;;;14.70;40.30;;;;;;5076602;28;20614;-67
2022/01/14 04:39:26;;;;;;;10.70;9.70;;;14.60;40.20;;;;;;5094527;28;20271;-69
2022/01/14 04:41:53;;;;;;;10.65;9.40;;;14.70;40.10;;;;;;5076496;28;20256;-69
2022/01/14 04:44:21;;;;;;;10.13;9.23;;;14.70;40.10;;;;;;5076613;28;20300;-67
2022/01/14 04:47:14;;;;;;;11.15;10.07;;;14.70;40.10;;;;;;5076637;28;20194;-67
2022/01/14 04:49:42;;;;;;;10.15;9.15;;;14.70;40.00;;;;;;5094289;28;20535;-68
2022/01/14 04:52:09;;;;;;;9.52;8.52;;;14.70;40.10;;;;;;5094203;28;20186;-70
2022/01/14 04:54:35;;;;;;;10.65;9.55;;;14.80;40.30;;;;;;5076243;28;20272;-69
2022/01/14 04:57:03;;;;;;;10.15;9.15;;;14.80;40.20;;;;;;5076284;28;20205;-67
2022/01/14 04:59:30;;;;;;;9.13;8.32;;;14.80;40.10;;;;;;5076355;28;20218;-69
2022/01/14 05:01:58;;;;;;;9.55;8.63;;;14.90;40.70;;;;;;5076437;28;20204;-70
2022/01/14 05:04:29;;;;;;;10.30;9.30;;;14.80;39.90;;;;;;5076093;28;20202;-69
2022/01/14 05:07:01;;;;;;;10.00;8.95;;;14.90;39.90;;;;;;5075961;28;20198;-70
2022/01/14 05:09:34;;;;;;;9.45;8.55;;;14.90;39.80;;;;;;5075854;28;20317;-69
2022/01/14 05:12:07;;;;;;;9.55;8.75;;;14.90;39.90;;;;;;5075879;28;20194;-68
2022/01/14 05:14:34;;;;;;;9.73;8.82;;;15.00;39.90;;;;;;5075746;28;20604;-69
2022/01/14 05:17:04;;;;;;;11.10;8.75;;;14.90;39.80;;;;;;5075929;28;20580;-69
2022/01/14 05:19:31;;;;;;;9.45;8.55;;;15.00;39.70;;;;;;5075462;28;20226;-69
2022/01/14 05:22:21;;;;;;;9.60;8.70;;;15.00;39.70;;;;;;5093914;28;20573;-67
2022/01/14 05:24:48;;;;;;;9.80;8.85;;;15.10;39.60;;;;;;5094310;28;20237;-66
2022/01/14 05:27:15;;;;;;;9.18;8.25;;;15.10;39.60;;;;;;5075645;28;20198;-69
2022/01/14 05:29:42;;;;;;;9.18;8.27;;;15.10;39.50;;;;;;5075140;28;20197;-67
2022/01/14 05:32:13;;;;;;;9.95;8.95;;;15.10;39.30;;;;;;5093868;28;20580;-67
2022/01/14 05:34:41;;;;;;;9.25;8.35;;;15.20;39.40;;;;;;5093650;28;20217;-68
2022/01/14 05:37:08;;;;;;;9.65;8.73;;;15.20;39.40;;;;;;5075740;28;20658;-69
2022/01/14 05:39:36;;;;;;;9.80;8.52;;;15.20;39.10;;;;;;5075654;28;20224;-68
2022/01/14 05:42:04;;;;;;;9.50;8.60;;;15.30;39.00;;;;;;5075589;28;20198;-67
2022/01/14 05:44:31;;;;;;;9.43;8.52;;;15.30;39.20;;;;;;5074991;28;20208;-69
2022/01/14 05:47:01;;;;;;;9.82;8.90;;;15.30;39.10;;;;;;5075152;28;20653;-69
2022/01/14 05:49:29;;;;;;;10.02;9.02;;;15.40;39.10;;;;;;5093367;28;20216;-69
2022/01/14 05:51:56;;;;;;;8.48;7.68;;;15.30;38.70;;;;;;5074974;28;20194;-68
2022/01/14 05:54:23;;;;;;;9.57;8.63;;;15.40;38.90;;;;;;5093087;28;20190;-69
2022/01/14 05:56:50;;;;;;;9.02;8.23;;;15.40;39.00;;;;;;5075003;28;20280;-69
2022/01/14 05:59:17;;;;;;;9.18;8.27;;;15.40;39.00;;;;;;5075382;28;20768;-67
2022/01/14 06:01:46;;;;;;;9.88;8.90;;;15.40;38.80;;;;;;5075378;28;20198;-67
2022/01/14 06:04:13;;;;;;;9.35;8.50;;;15.40;38.80;;;;;;5093437;28;20214;-67
2022/01/14 06:06:42;;;;;;;9.45;8.50;;;15.50;38.80;;;;;;5075666;28;20198;-69
2022/01/14 06:09:08;;;;;;;10.02;9.13;;;15.50;38.70;;;;;;5075277;28;20732;-69
2022/01/14 06:11:36;;;;;;;9.57;8.68;;;15.50;38.70;;;;;;5075413;28;20202;-67
2022/01/14 06:14:03;;;;;;;10.45;9.38;;;15.50;38.20;;;;;;5094202;28;20555;-65
2022/01/14 06:16:30;;;;;;;10.65;9.10;;;15.50;38.00;;;;;;5094603;28;20200;-64
2022/01/14 06:18:57;;;;;;;10.23;9.23;;;15.50;38.30;;;;;;5074552;28;20448;-66
2022/01/14 06:21:24;;;;;;;9.75;8.85;;;15.50;37.80;;;;;;5075261;28;20969;-64
2022/01/14 06:23:54;;;;;;;9.75;8.85;;;15.60;38.30;;;;;;5075795;28;20247;-68
2022/01/14 06:26:21;;;;;;;9.82;8.85;;;15.60;38.40;;;;;;5095503;28;20205;-69
2022/01/14 06:28:48;;;;;;;9.95;8.95;;;15.60;38.70;;;;;;5079354;28;20251;-66
2022/01/14 06:31:15;;;;;;;9.18;8.27;;;15.70;38.70;;;;;;5080471;28;20244;-66
2022/01/14 06:33:42;;;;;;;10.45;9.45;;;15.70;38.80;;;;;;5080881;28;20205;-69
2022/01/14 06:36:09;;;;;;;9.70;8.80;;;15.70;39.10;;;;;;5092897;28;20190;-67
2022/01/14 06:38:36;;;;;;;11.82;8.38;;;15.70;39.10;;;;;;5074933;28;20312;-65
2022/01/14 06:41:05;;;;;;;9.85;8.95;;;15.70;38.50;;;;;;5076187;28;20194;-67
2022/01/14 06:43:32;;;;;;;10.23;9.23;;;15.70;38.60;;;;;;5078668;28;20304;-67
2022/01/14 06:45:58;;;;;;;10.25;9.25;;;15.70;38.70;;;;;;5096866;28;20190;-68
2022/01/14 06:48:26;;;;;;;9.68;8.80;;;15.70;38.40;;;;;;5078384;28;20217;-68
2022/01/14 06:50:53;;;;;;;10.25;9.25;;;15.80;38.80;;;;;;5078540;28;20198;-68
2022/01/14 06:53:20;;;;;;;9.15;8.25;;;15.80;38.20;;;;;;5079553;28;20678;-67
2022/01/14 06:55:46;;;;;;;10.10;9.20;;;15.80;38.70;;;;;;5078704;28;20198;-65
2022/01/14 06:58:15;;;;;;;9.55;8.55;;;15.80;38.70;;;;;;5078925;28;20221;-69
2022/01/14 07:00:42;;;;;;;10.15;8.48;;;15.80;38.90;;;;;;5078170;28;20198;-67
2022/01/14 07:03:09;;;;;;;8.93;8.02;;;15.80;38.70;;;;;;5078417;28;20229;-67
2022/01/14 07:05:37;;;;;;;10.70;8.52;;;15.80;38.80;;;;;;5078260;28;20198;-66
2022/01/14 07:08:04;;;;;;;9.15;8.27;;;15.80;38.80;;;;;;5078193;28;20245;-69
2022/01/14 07:10:35;;;;;;;9.32;8.52;;;15.80;38.80;;;;;;5078426;28;20190;-68
2022/01/14 07:13:03;;;;;;;9.27;8.30;;;15.80;38.80;;;;;;5078444;28;20186;-68
2022/01/14 07:15:32;;;;;;;9.60;8.65;;;15.70;38.70;;;;;;5096362;28;20216;-66
2022/01/14 07:17:59;;;;;;;9.75;8.80;;;15.70;38.70;;;;;;5096371;28;20575;-65
2022/01/14 07:20:26;;;;;;;10.57;9.50;;;15.70;38.70;;;;;;5078101;28;20544;-68
2022/01/14 07:22:53;;;;;;;9.40;8.52;;;15.70;38.70;;;;;;5079479;28;20233;-67
2022/01/14 07:25:20;;;;;;;10.13;9.13;;;15.80;38.30;;;;;;5078200;28;20212;-66
2022/01/14 07:27:48;;;;;;;9.18;8.27;;;15.80;38.50;;;;;;5096328;28;20348;-65
2022/01/14 07:30:15;;;;;;;9.23;8.35;;;15.80;38.30;;;;;;5078517;28;20616;-67
2022/01/14 07:32:44;;;;;;;9.50;8.60;;;15.80;38.30;;;;;;5078751;28;20228;-68
2022/01/14 07:35:11;;;;;;;9.25;8.35;;;15.80;38.10;;;;;;5078068;28;20198;-68
2022/01/14 07:37:39;;;;;;;10.23;9.23;;;15.80;38.20;;;;;;5078114;28;20218;-66
2022/01/14 07:40:07;;;;;;;9.50;8.60;;;15.80;37.90;;;;;;5077950;28;20194;-68
2022/01/14 07:42:34;;;;;;;9.85;8.95;;;15.90;38.00;;;;;;5097293;28;20197;-68
2022/01/14 07:45:01;;;;;;;8.90;8.10;;;15.90;37.50;;;;;;5096036;28;20182;-64
2022/01/14 07:47:28;;;;;;;9.48;8.55;;;15.90;38.00;;;;;;5077395;28;20190;-68
2022/01/14 07:49:56;;;;;;;9.00;8.10;;;15.90;38.00;;;;;;5095581;28;20190;-67
2022/01/14 07:52:23;;;;;;;9.65;8.65;;;15.80;37.90;;;;;;5077182;28;20197;-66
2022/01/14 07:54:50;;;;;;;9.52;8.52;;;15.90;38.00;;;;;;5077471;28;20196;-65
2022/01/14 07:57:18;;;;;;;10.25;9.25;;;15.90;38.00;;;;;;5095585;28;20267;-68
2022/01/14 07:59:45;;;;;;;9.43;8.52;;;15.90;37.60;;;;;;5077340;28;20194;-67
2022/01/14 08:02:13;;;;;;;9.60;8.65;;;15.90;37.80;;;;;;5077420;28;20194;-65
2022/01/14 08:04:41;;;;;;;9.73;8.82;;;15.90;37.50;;;;;;5077415;28;20214;-66
2022/01/14 08:07:10;;;;;;;10.35;9.35;;;15.80;37.30;;;;;;5077182;28;20285;-67
2022/01/14 08:09:37;;;;;;;11.00;9.85;;;15.90;37.70;;;;;;5077139;28;20214;-67
2022/01/14 08:12:05;;;;;;;9.90;8.90;;;15.90;37.20;;;;;;5077264;28;20198;-66
2022/01/14 08:14:32;;;;;;;9.85;8.85;;;16.00;37.30;;;;;;5077384;28;20194;-65
2022/01/14 08:16:59;;;;;;;10.80;9.52;;;16.00;37.80;;;;;;5077046;28;20742;-68
2022/01/14 08:19:32;;;;;;;10.30;9.20;;;16.00;37.20;;;;;;5076673;28;20220;-67
2022/01/14 08:22:01;;;;;;;9.38;8.52;;;16.00;37.30;;;;;;5095366;28;20174;-69
2022/01/14 08:24:29;;;;;;;9.57;8.77;;;16.00;37.20;;;;;;5094813;28;20218;-68
2022/01/14 08:26:56;;;;;;;9.77;8.88;;;16.00;37.30;;;;;;5076940;28;20198;-66
2022/01/14 08:29:24;;;;;;;10.05;9.05;;;16.00;36.90;;;;;;5076536;28;20252;-66
2022/01/14 08:31:51;;;;;;;10.60;9.50;;;16.00;36.80;;;;;;5076209;28;20526;-66
2022/01/14 08:34:18;;;;;;;10.27;9.30;;;16.00;36.90;;;;;;5076216;28;20630;-66
2022/01/14 08:36:45;;;;;;;9.35;8.52;;;16.00;37.20;;;;;;5094385;28;20190;-67
2022/01/14 08:39:12;;;;;;;10.25;9.20;;;16.00;37.00;;;;;;5094365;28;20216;-68
2022/01/14 08:41:40;;;;;;;10.52;9.57;;;16.00;36.60;;;;;;5076372;28;20205;-68
2022/01/14 08:44:08;;;;;;;9.73;8.82;;;16.10;36.90;;;;;;5076095;28;20209;-66
2022/01/14 08:46:35;;;;;;;10.77;9.70;;;16.10;37.10;;;;;;5094503;28;20186;-66
2022/01/14 08:49:02;;;;;;;10.05;9.05;;;16.10;37.20;;;;;;5094322;28;20307;-67
2022/01/14 08:51:29;;;;;;;9.25;8.35;;;16.10;37.00;;;;;;5076378;28;20229;-67
2022/01/14 08:54:02;;;;;;;9.65;8.65;;;16.10;37.10;;;;;;5076157;28;20289;-65
2022/01/14 08:56:30;;;;;;;10.93;9.80;;;16.20;37.10;;;;;;5076788;28;20197;-65
2022/01/14 08:58:59;;;;;;;9.70;8.73;;;16.20;36.70;;;;;;5076567;28;20633;-65
2022/01/14 09:01:25;;;;;;;10.80;9.07;;;16.10;36.90;;;;;;5076432;28;20205;-65
2022/01/14 09:03:52;;;;;;;9.73;8.82;;;16.10;36.60;;;;;;5075620;28;20718;-69
2022/01/14 09:06:19;;;;;;;10.07;9.07;;;16.20;37.10;;;;;;5094469;28;20681;-66
2022/01/14 09:08:46;;;;;;;9.35;8.38;;;16.20;37.10;;;;;;5075844;28;20673;-65
2022/01/14 09:11:13;;;;;;;9.20;8.30;;;16.20;36.90;;;;;;5075647;28;20642;-68
2022/01/14 09:13:40;;;;;;;9.57;8.68;;;16.30;37.20;;;;;;5076038;28;20210;-66
2022/01/14 09:16:09;;;;;;;9.52;8.65;;;16.20;37.60;;;;;;5076240;28;20292;-65
2022/01/14 09:18:36;;;;;;;9.32;8.43;;;16.30;36.90;;;;;;5094020;28;20562;-68
2022/01/14 09:21:03;;;;;;;9.40;8.50;;;16.30;37.00;;;;;;5075302;28;20193;-68
2022/01/14 09:23:33;;;;;;;9.70;8.80;;;16.30;37.10;;;;;;5075634;28;20221;-66
2022/01/14 09:26:00;;;;;;;9.68;8.68;;;16.30;36.90;;;;;;5075514;28;20202;-68
2022/01/14 09:28:28;;;;;;;9.18;8.23;;;16.30;37.00;;;;;;5093402;28;20740;-68
2022/01/14 09:30:55;;;;;;;9.35;8.45;;;16.30;37.00;;;;;;5093268;28;20277;-68
2022/01/14 09:33:23;;;;;;;10.02;9.02;;;16.30;37.10;;;;;;5075146;28;20288;-66
2022/01/14 09:35:51;;;;;;;9.50;8.50;;;16.30;37.10;;;;;;5093453;28;20625;-64
2022/01/14 09:38:18;;;;;;;9.82;8.93;;;16.30;37.10;;;;;;5074959;28;20213;-67
2022/01/14 09:40:49;;;;;;;10.15;9.15;;;16.30;37.50;;;;;;5075017;28;20326;-68
2022/01/14 09:43:16;;;;;;;9.90;8.95;;;16.30;37.10;;;;;;5075019;28;20193;-68
2022/01/14 09:45:43;;;;;;;9.85;8.95;;;16.30;36.90;;;;;;5075001;28;20209;-66
2022/01/14 09:48:14;;;;;;;9.35;8.55;;;16.30;36.80;;;;;;5074780;28;20226;-68
2022/01/14 09:50:43;;;;;;;9.63;8.73;;;16.30;36.90;;;;;;5074866;28;20202;-66
2022/01/14 09:53:12;;;;;;;8.90;8.07;;;16.30;36.80;;;;;;5093014;28;20349;-67
2022/01/14 09:55:40;;;;;;;9.95;9.05;;;16.30;37.00;;;;;;5074800;28;20217;-68
2022/01/14 09:58:07;;;;;;;10.55;9.55;;;16.30;36.80;;;;;;5074781;28;20271;-66
2022/01/14 10:00:34;;;;;;;9.77;8.95;;;16.40;37.00;;;;;;5074954;28;20202;-66
2022/01/14 10:03:02;;;;;;;9.88;8.98;;;16.40;36.90;;;;;;5074574;28;20715;-65
2022/01/14 10:05:36;;;;;;;10.90;9.82;;;16.40;36.80;;;;;;5074380;28;20605;-69
2022/01/14 10:08:18;;;;;;;9.88;8.98;;;16.40;36.70;;;;;;5074718;28;20209;-66
2022/01/14 10:10:47;;;;;;;10.63;9.63;;;16.40;37.10;;;;;;5074791;28;20197;-66
2022/01/14 10:13:15;;;;;;;10.10;9.07;;;16.40;37.10;;;;;;5074466;28;20232;-68
2022/01/14 10:15:49;;;;;;;10.60;9.52;;;16.50;37.10;;;;;;5092968;28;20190;-68
2022/01/14 10:18:17;;;;;;;10.32;9.43;;;16.50;37.00;;;;;;5074550;28;20559;-69
2022/01/14 10:20:44;;;;;;;9.70;8.75;;;16.50;37.00;;;;;;5092577;28;20651;-67
2022/01/14 10:23:13;;;;;;;9.85;8.85;;;16.50;36.90;;;;;;5074436;28;20281;-67
2022/01/14 10:25:41;;;;;;;10.48;9.18;;;16.50;37.00;;;;;;5074031;28;20705;-66
2022/01/14 10:28:18;;;;;;;10.45;9.40;;;16.60;36.90;;;;;;5074276;28;20217;-66
2022/01/14 10:30:46;;;;;;;10.93;9.90;;;16.60;36.80;;;;;;5074296;28;20638;-68
2022/01/14 10:33:13;;;;;;;10.90;9.82;;;16.60;36.70;;;;;;5074542;28;20661;-67
2022/01/14 10:35:42;;;;;;;10.38;9.48;;;16.60;36.50;;;;;;5074226;28;20190;-67
2022/01/14 10:38:10;;;;;;;10.00;9.10;;;16.60;36.70;;;;;;5074216;28;20214;-65
2022/01/14 10:40:43;;;;;;;10.93;9.15;;;16.70;36.90;;;;;;5074320;28;20198;-68
2022/01/14 10:43:12;;;;;;;10.35;9.00;;;16.60;36.70;;;;;;5074294;28;20733;-65
2022/01/14 10:45:41;;;;;;;10.02;9.02;;;16.70;36.70;;;;;;5092066;28;20636;-69
2022/01/14 10:48:10;;;;;;;10.20;9.20;;;16.70;36.70;;;;;;5092430;28;20693;-68
2022/01/14 10:50:38;;;;;;;9.98;9.10;;;16.80;36.70;;;;;;5074176;28;20641;-66
2022/01/14 10:53:09;;;;;;;9.93;9.02;;;16.70;36.50;;;;;;5092248;28;20190;-65
2022/01/14 10:55:39;;;;;;;11.23;9.73;;;16.80;36.40;;;;;;5074257;28;20182;-68
2022/01/14 10:58:14;;;;;;;9.77;8.77;;;16.80;36.70;;;;;;5074180;28;20321;-66
2022/01/14 11:00:43;;;;;;;9.88;8.93;;;16.80;36.70;;;;;;5092808;28;20185;-68
2022/01/14 11:03:10;;;;;;;9.88;8.98;;;16.80;36.60;;;;;;5074207;28;20654;-68
2022/01/14 11:05:37;;;;;;;9.23;8.32;;;16.80;36.50;;;;;;5092252;28;20776;-64
2022/01/14 11:08:05;;;;;;;10.27;9.20;;;16.80;36.50;;;;;;5074147;28;20213;-68
2022/01/14 11:10:34;;;;;;;9.95;8.73;;;16.80;36.60;;;;;;5074280;28;20199;-68
2022/01/14 11:13:03;;;;;;;9.60;8.70;;;16.80;36.90;;;;;;5074296;28;20232;-66
2022/01/14 11:15:31;;;;;;;10.30;9.40;;;16.80;36.80;;;;;;5074116;28;20582;-68
2022/01/14 11:18:01;;;;;;;9.50;8.50;;;16.90;36.90;;;;;;5074008;28;20646;-65
2022/01/14 11:20:32;;;;;;;10.10;9.10;;;16.90;36.90;;;;;;5073628;28;20202;-65
2022/01/14 11:23:14;;;;;;;9.15;8.35;;;17.00;36.70;;;;;;5074096;28;20190;-64
2022/01/14 11:25:47;;;;;;;9.52;8.55;;;17.00;36.80;;;;;;5092093;28;20210;-65
2022/01/14 11:28:18;;;;;;;10.20;9.20;;;17.00;36.80;;;;;;5077086;28;20605;-66
2022/01/14 11:30:45;;;;;;;9.10;8.30;;;17.00;36.60;;;;;;5077755;28;20194;-66
2022/01/14 11:33:13;;;;;;;9.63;8.73;;;17.00;36.60;;;;;;5078075;28;20202;-66
2022/01/14 11:35:40;;;;;;;8.95;8.15;;;17.00;36.80;;;;;;5078144;28;20198;-68
2022/01/14 11:38:35;;;;;;;9.57;8.68;;;17.00;36.90;;;;;;5078176;28;20241;-67
2022/01/14 11:41:03;;;;;;;9.30;8.48;;;17.10;36.90;;;;;;5078299;28;20288;-68
2022/01/14 11:43:48;;;;;;;8.80;8.00;;;17.10;36.70;;;;;;5078280;28;20255;-67
2022/01/14 11:46:16;;;;;;;9.77;8.88;;;17.10;36.70;;;;;;5096637;28;20182;-68
2022/01/14 11:48:48;;;;;;;9.80;8.90;;;17.20;36.90;;;;;;5077717;28;20206;-67
2022/01/14 11:51:17;;;;;;;9.57;8.73;;;17.20;36.50;;;;;;5077696;28;20198;-68
2022/01/14 11:53:49;;;;;;;9.95;8.85;;;17.20;36.70;;;;;;5077211;28;20201;-69
2022/01/14 11:56:46;;;;;;;9.32;8.45;;;17.20;36.60;;;;;;5077632;28;20196;-68
2022/01/14 11:59:46;;;;;;;10.40;9.50;;;17.30;36.50;;;;;;5077226;28;20674;-68
2022/01/14 12:02:33;;;;;;;8.88;8.07;;;17.30;36.40;;;;;;5076889;28;20194;-66
2022/01/14 12:05:01;;;;;;;9.02;8.23;;;17.40;36.70;;;;;;5076863;28;20210;-68
2022/01/14 12:07:29;;;;;;;10.02;8.57;;;17.40;36.60;;;;;;5095025;28;20186;-68
2022/01/14 12:09:59;;;;;;;9.55;8.65;;;17.40;36.20;;;;;;5095277;28;20673;-67
2022/01/14 12:12:28;;;;;;;9.93;8.93;;;17.50;36.30;;;;;;5076692;28;20646;-66
2022/01/14 12:14:58;;;;;;;10.07;8.82;;;17.50;36.30;;;;;;5094925;28;20235;-65
2022/01/14 12:17:35;;;;;;;9.70;8.77;;;17.50;36.20;;;;;;5076578;28;20226;-67
2022/01/14 12:20:09;;;;;;;9.95;8.95;;;17.60;36.30;;;;;;5076454;28;20198;-69
2022/01/14 12:22:36;;;;;;;8.60;7.88;;;17.60;36.10;;;;;;5076831;28;20193;-65
2022/01/14 12:25:04;;;;;;;8.95;8.15;;;17.60;36.20;;;;;;5076232;28;20229;-68
2022/01/14 12:27:41;;;;;;;10.13;9.13;;;17.70;36.30;;;;;;5076467;28;20190;-66
2022/01/14 12:30:14;;;;;;;9.35;8.50;;;17.70;36.20;;;;;;5076541;28;20185;-65
2022/01/14 12:32:42;;;;;;;9.77;8.80;;;17.80;36.30;;;;;;5076621;28;20281;-64
2022/01/14 12:35:13;;;;;;;9.70;8.80;;;17.80;36.20;;;;;;5076176;28;20538;-65
2022/01/14 12:37:43;;;;;;;9.02;8.13;;;17.90;36.30;;;;;;5075661;28;20240;-66
2022/01/14 12:40:12;;;;;;;8.80;8.00;;;17.90;36.80;;;;;;5093901;28;20182;-65
2022/01/14 12:42:39;;;;;;;9.93;8.93;;;17.90;36.10;;;;;;5076155;28;20243;-68
2022/01/14 12:45:10;;;;;;;9.18;8.38;;;17.90;36.10;;;;;;5075881;28;20304;-68
2022/01/14 12:47:41;;;;;;;9.60;8.70;;;18.00;36.20;;;;;;5076095;28;20205;-67
2022/01/14 12:50:09;;;;;;;9.15;8.32;;;18.00;36.10;;;;;;5094283;28;20177;-68
2022/01/14 12:52:46;;;;;;;9.63;8.45;;;18.00;36.20;;;;;;5076002;28;20190;-66
2022/01/14 12:55:13;;;;;;;9.07;8.27;;;18.00;36.10;;;;;;5075868;28;20221;-68
2022/01/14 12:57:40;;;;;;;9.80;8.73;;;18.10;36.00;;;;;;5075609;28;20229;-68
2022/01/14 13:00:10;;;;;;;9.77;8.88;;;18.10;36.30;;;;;;5075799;28;20190;-66
2022/01/14 13:02:38;;;;;;;9.10;8.20;;;18.10;36.20;;;;;;5093849;28;20233;-64
2022/01/14 13:05:06;;;;;;;9.75;8.65;;;18.20;36.40;;;;;;5075442;28;20620;-66